Time;durP1;ratioP1;P1;durP2;ratioP2;P2;SDS_P1;SDS_P2;PMS_P1;PMS_P2;Temp;Humidity;BMP_temperature;BMP_pressure;BME280_temperature;BME280_humidity;BME280_pressure;Samples;Min_cycle;Max_cycle;Signal;HPM_P1;HPM_P2
2021/01/16 00:00:22;;;;;;;;;;;;;;;26.15;28.73;100748.16;5103591;28;514;-35
2021/01/16 00:02:48;;;;;;;;;;;;;;;26.07;29.10;100748.19;5103397;28;741;-35
2021/01/16 00:05:19;;;;;;;;;;;;;;;26.06;29.18;100754.59;5103207;28;795;-33
2021/01/16 00:07:46;;;;;;;;;;;;;;;26.02;29.32;100749.56;5103180;28;985;-33
2021/01/16 00:10:12;;;;;;;;;;;;;;;26.00;29.36;100748.91;5103259;28;750;-34
2021/01/16 00:12:37;;;;;;;;;;;;;;;25.94;29.62;100749.59;5103052;28;1194;-37
2021/01/16 00:15:03;;;;;;;;;;;;;;;25.92;29.74;100752.44;5103589;28;749;-37
2021/01/16 00:17:29;;;;;;;;;;;;;;;25.95;29.85;100748.59;5103214;28;1971;-31
2021/01/16 00:19:54;;;;;;;;;;;;;;;26.00;29.75;100750.75;5103247;28;851;-34
2021/01/16 00:22:19;;;;;;;;;;;;;;;25.95;29.95;100745.03;5097289;28;961;-36
2021/01/16 00:24:44;;;;;;;;;;;;;;;25.89;30.27;100752.00;5082352;28;1063;-33
2021/01/16 00:27:10;;;;;;;;;;;;;;;25.89;30.11;100750.09;5082766;28;803;-33
2021/01/16 00:29:35;;;;;;;;;;;;;;;25.87;30.08;100748.63;5083297;28;780;-30
2021/01/16 00:32:00;;;;;;;;;;;;;;;25.89;30.01;100752.81;5082614;28;806;-33
2021/01/16 00:34:25;;;;;;;;;;;;;;;25.83;30.08;100740.03;5082746;28;783;-36
2021/01/16 00:36:51;;;;;;;;;;;;;;;25.77;30.17;100749.66;5082612;28;1979;-33
2021/01/16 00:39:16;;;;;;;;;;;;;;;25.81;30.15;100744.75;5082370;28;851;-36
2021/01/16 00:41:41;;;;;;;;;;;;;;;25.86;29.95;100739.69;5082823;28;756;-35
2021/01/16 00:44:07;;;;;;;;;;;;;;;25.86;29.91;100737.00;5082546;28;1525;-33
2021/01/16 00:46:33;;;;;;;;;;;;;;;25.85;29.88;100737.16;5081907;28;1021;-35
2021/01/16 00:48:58;;;;;;;;;;;;;;;25.84;29.83;100740.88;5082819;28;751;-34
2021/01/16 00:51:23;;;;;;;;;;;;;;;25.79;30.02;100736.84;5082826;28;811;-33
2021/01/16 00:53:49;;;;;;;;;;;;;;;25.83;30.04;100729.25;5098804;28;1009;-30
2021/01/16 00:56:14;;;;;;;;;;;;;;;25.80;30.34;100727.75;5098866;28;1972;-28
2021/01/16 00:58:39;;;;;;;;;;;;;;;25.80;30.18;100726.91;5099856;28;726;-33
2021/01/16 01:01:05;;;;;;;;;;;;;;;25.84;30.11;100730.09;5099247;28;798;-34
2021/01/16 01:03:30;;;;;;;;;;;;;;;25.84;30.20;100728.22;5099736;28;791;-36
2021/01/16 01:05:56;;;;;;;;;;;;;;;25.79;30.58;100722.56;5099458;28;862;-34
2021/01/16 01:08:28;;;;;;;;;;;;;;;25.86;30.54;100728.91;5098473;28;950;-36
2021/01/16 01:10:53;;;;;;;;;;;;;;;25.75;30.82;100724.75;5099661;28;835;-29
2021/01/16 01:13:18;;;;;;;;;;;;;;;25.69;30.85;100711.97;5099166;28;885;-35
2021/01/16 01:15:44;;;;;;;;;;;;;;;25.74;30.94;100712.28;5098893;28;1905;-36
2021/01/16 01:18:09;;;;;;;;;;;;;;;25.76;31.15;100706.72;5099488;28;1127;-35
2021/01/16 01:20:34;;;;;;;;;;;;;;;25.75;31.15;100696.97;5099319;28;803;-32
2021/01/16 01:23:00;;;;;;;;;;;;;;;25.70;31.26;100693.94;5086932;28;954;-36
2021/01/16 01:25:25;;;;;;;;;;;;;;;25.69;31.30;100695.81;5078721;28;1128;-36
2021/01/16 01:27:54;;;;;;;;;;;;;;;25.69;31.40;100690.44;5078858;28;831;-35
2021/01/16 01:30:20;;;;;;;;;;;;;;;25.73;31.64;100691.75;5078590;28;786;-32
2021/01/16 01:32:45;;;;;;;;;;;;;;;25.70;31.87;100691.25;5078947;28;751;-32
2021/01/16 01:35:11;;;;;;;;;;;;;;;25.69;31.90;100690.44;5078660;28;867;-35
2021/01/16 01:37:39;;;;;;;;;;;;;;;25.66;32.06;100691.59;5086173;28;1969;-32
2021/01/16 01:40:05;;;;;;;;;;;;;;;25.64;32.10;100692.81;5099088;28;752;-31
2021/01/16 01:42:30;;;;;;;;;;;;;;;25.65;32.12;100698.00;5098793;28;760;-32
2021/01/16 01:44:56;;;;;;;;;;;;;;;25.62;32.27;100689.41;5098217;28;546;-30
2021/01/16 01:47:21;;;;;;;;;;;;;;;25.60;32.38;100683.34;5098800;28;759;-35
2021/01/16 01:49:46;;;;;;;;;;;;;;;25.54;32.46;100680.34;5098698;28;819;-35
2021/01/16 01:52:12;;;;;;;;;;;;;;;25.55;32.52;100678.50;5097866;28;1005;-35
2021/01/16 01:54:37;;;;;;;;;;;;;;;25.57;32.82;100681.84;5098929;28;843;-33
2021/01/16 01:57:03;;;;;;;;;;;;;;;25.58;32.69;100688.06;5098386;28;1910;-35
2021/01/16 01:59:29;;;;;;;;;;;;;;;25.55;32.41;100684.72;5098061;28;890;-34
2021/01/16 02:01:54;;;;;;;;;;;;;;;25.57;32.69;100676.47;5098283;28;853;-35
2021/01/16 02:04:20;;;;;;;;;;;;;;;25.59;32.56;100679.81;5098568;28;803;-32
2021/01/16 02:06:45;;;;;;;;;;;;;;;25.63;32.37;100670.41;5096361;28;950;-35
2021/01/16 02:09:10;;;;;;;;;;;;;;;25.61;32.34;100671.56;5098075;28;869;-34
2021/01/16 02:11:36;;;;;;;;;;;;;;;25.59;32.60;100679.00;5098218;28;764;-29
2021/01/16 02:14:01;;;;;;;;;;;;;;;25.59;32.65;100671.72;5096477;28;842;-35
2021/01/16 02:16:35;;;;;;;;;;;;;;;25.55;32.67;100673.94;5098336;28;1906;-35
2021/01/16 02:19:00;;;;;;;;;;;;;;;25.53;32.66;100670.59;5098167;28;1249;-36
2021/01/16 02:21:26;;;;;;;;;;;;;;;25.50;32.67;100665.56;5096673;28;775;-35
2021/01/16 02:24:03;;;;;;;;;;;;;;;25.49;32.69;100660.34;5077825;28;1044;-35
2021/01/16 02:26:28;;;;;;;;;;;;;;;25.49;32.73;100663.84;5077675;28;823;-35
2021/01/16 02:28:56;;;;;;;;;;;;;;;25.50;32.56;100668.25;5077550;28;803;-33
2021/01/16 02:31:23;;;;;;;;;;;;;;;25.50;32.50;100664.69;5077568;28;858;-36
2021/01/16 02:33:48;;;;;;;;;;;;;;;25.50;32.67;100668.25;5077999;28;783;-35
2021/01/16 02:36:32;;;;;;;;;;;;;;;25.58;32.40;100664.66;5075795;28;1971;-35
2021/01/16 02:39:16;;;;;;;;;;;;;;;25.56;32.35;100674.78;5096642;28;1005;-34
2021/01/16 02:42:00;;;;;;;;;;;;;;;25.47;32.49;100668.59;5096600;28;759;-33
2021/01/16 02:44:28;;;;;;;;;;;;;;;25.51;32.35;100655.59;5097252;28;779;-29
2021/01/16 02:46:57;;;;;;;;;;;;;;;25.50;32.24;100646.69;5097468;28;839;-33
2021/01/16 02:49:22;;;;;;;;;;;;;;;25.50;32.29;100653.94;5098013;28;809;-36
2021/01/16 02:51:57;;;;;;;;;;;;;;;25.50;32.08;100652.09;5097046;28;946;-35
2021/01/16 02:54:22;;;;;;;;;;;;;;;25.44;32.21;100648.22;5097143;28;825;-34
2021/01/16 02:56:47;;;;;;;;;;;;;;;25.40;32.24;100649.59;5096605;28;1902;-32
2021/01/16 02:59:13;;;;;;;;;;;;;;;25.52;31.88;100654.59;5097001;28;822;-35
2021/01/16 03:01:38;;;;;;;;;;;;;;;25.51;31.83;100644.81;5097315;28;676;-36
2021/01/16 03:04:04;;;;;;;;;;;;;;;25.53;31.87;100643.66;5096216;28;811;-34
2021/01/16 03:06:29;;;;;;;;;;;;;;;25.54;31.77;100642.63;5096864;28;787;-32
2021/01/16 03:08:54;;;;;;;;;;;;;;;25.54;31.63;100641.81;5096436;28;954;-35
2021/01/16 03:11:20;;;;;;;;;;;;;;;25.51;31.62;100636.75;5095770;28;847;-32
2021/01/16 03:13:46;;;;;;;;;;;;;;;25.42;31.88;100639.47;5096769;28;772;-33
2021/01/16 03:16:12;;;;;;;;;;;;;;;25.50;31.72;100638.63;5096318;28;1971;-37
2021/01/16 03:18:39;;;;;;;;;;;;;;;25.49;31.65;100644.19;5095045;28;1202;-36
2021/01/16 03:21:04;;;;;;;;;;;;;;;25.44;31.87;100633.94;5097169;28;803;-34
2021/01/16 03:23:33;;;;;;;;;;;;;;;25.42;31.80;100628.69;5081275;28;1040;-32
2021/01/16 03:25:58;;;;;;;;;;;;;;;24.68;20.02;100619.78;5076199;28;1068;-37
2021/01/16 03:28:23;;;;;;;;;;;;;;;23.64;19.38;100626.31;5076795;28;811;-35
2021/01/16 03:30:48;;;;;;;;;;;;;;;24.74;23.50;100620.94;5076888;28;768;-33
2021/01/16 03:33:14;;;;;;;;;;;;;;;27.21;21.19;100632.50;5076629;28;851;-34
2021/01/16 03:35:39;;;;;;;;;;;;;;;28.62;20.02;100636.97;5076345;28;1902;-35
2021/01/16 03:38:04;;;;;;;;;;;;;;;29.78;18.48;100625.78;5088645;28;953;-33
2021/01/16 03:40:29;;;;;;;;;;;;;;;30.01;18.60;100641.66;5096869;28;760;-35
2021/01/16 03:42:55;;;;;;;;;;;;;;;30.80;17.80;100640.28;5096578;28;858;-33
2021/01/16 03:45:20;;;;;;;;;;;;;;;30.22;18.64;100642.56;5096834;28;748;-33
2021/01/16 03:47:46;;;;;;;;;;;;;;;30.24;18.72;100636.94;5096788;28;827;-34
2021/01/16 03:50:11;;;;;;;;;;;;;;;30.77;18.05;100632.53;5096684;28;731;-37
2021/01/16 03:52:37;;;;;;;;;;;;;;;30.95;18.19;100645.50;5096475;28;961;-37
2021/01/16 03:55:03;;;;;;;;;;;;;;;31.01;17.99;100639.19;5096687;28;775;-36
2021/01/16 03:57:28;;;;;;;;;;;;;;;31.13;18.08;100650.25;5096797;28;1996;-36
2021/01/16 03:59:53;;;;;;;;;;;;;;;31.36;17.90;100640.78;5096411;28;743;-33
2021/01/16 04:02:19;;;;;;;;;;;;;;;31.48;17.91;100645.59;5096709;28;782;-35
2021/01/16 04:04:44;;;;;;;;;;;;;;;31.73;17.70;100651.09;5097042;28;767;-34
2021/01/16 04:07:10;;;;;;;;;;;;;;;31.80;17.92;100650.25;5095976;28;957;-34
2021/01/16 04:09:35;;;;;;;;;;;;;;;31.91;17.80;100640.56;5096644;28;882;-35
2021/01/16 04:12:00;;;;;;;;;;;;;;;32.05;17.74;100644.06;5096600;28;787;-35
2021/01/16 04:14:25;;;;;;;;;;;;;;;32.12;18.05;100653.00;5096142;28;865;-31
2021/01/16 04:16:51;;;;;;;;;;;;;;;32.12;17.57;100644.84;5096485;28;1906;-33
2021/01/16 04:19:16;;;;;;;;;;;;;;;32.02;17.16;100639.88;5096368;28;863;-34
2021/01/16 04:21:41;;;;;;;;;;;;;;;31.16;14.52;100640.88;5095263;28;962;-35
2021/01/16 04:24:07;;;;;;;;;;;;;;;27.49;14.68;100642.63;5076128;28;1111;-34
2021/01/16 04:26:32;;;;;;;;;;;;;;;25.36;14.56;100628.59;5076135;28;783;-34
2021/01/16 04:28:57;;;;;;;;;;;;;;;24.58;14.83;100629.88;5077315;28;776;-36
2021/01/16 04:31:22;;;;;;;;;;;;;;;23.50;14.66;100629.63;5080094;28;794;-33
2021/01/16 04:33:48;;;;;;;;;;;;;;;23.55;15.89;100628.16;5080207;28;720;-35
2021/01/16 04:36:13;;;;;;;;;;;;;;;23.50;15.40;100626.94;5079388;28;1918;-31
2021/01/16 04:38:38;;;;;;;;;;;;;;;22.76;16.49;100620.97;5079551;28;970;-33
2021/01/16 04:41:04;;;;;;;;;;;;;;;21.19;16.83;100610.28;5079615;28;823;-33
2021/01/16 04:43:29;;;;;;;;;;;;;;;22.05;17.57;100616.34;5079181;28;948;-36
2021/01/16 04:45:59;;;;;;;;;;;;;;;21.00;17.76;100607.50;5078918;28;835;-34
2021/01/16 04:48:24;;;;;;;;;;;;;;;20.03;18.02;100610.06;5078478;28;573;-32
2021/01/16 04:50:49;;;;;;;;;;;;;;;19.64;18.63;100606.31;5078146;28;795;-34
2021/01/16 04:53:15;;;;;;;;;;;;;;;19.38;18.48;100617.47;5093034;28;1001;-33
2021/01/16 04:55:40;;;;;;;;;;;;;;;24.07;17.58;100622.75;5098432;28;1973;-33
2021/01/16 04:58:07;;;;;;;;;;;;;;;23.12;20.79;100610.13;5097839;28;822;-34
2021/01/16 05:00:36;;;;;;;;;;;;;;;23.08;22.36;100608.78;5099916;28;840;-36
2021/01/16 05:03:02;;;;;;;;;;;;;;;23.60;22.22;100615.09;5099589;28;759;-35
2021/01/16 05:05:28;;;;;;;;;;;;;;;24.00;21.37;100605.59;5099599;28;905;-35
2021/01/16 05:07:53;;;;;;;;;;;;;;;24.40;21.10;100611.22;5098067;28;950;-27
2021/01/16 05:10:18;;;;;;;;;;;;;;;24.37;21.18;100612.41;5099633;28;811;-32
2021/01/16 05:12:52;;;;;;;;;;;;;;;26.04;19.03;100612.75;5098078;28;831;-31
2021/01/16 05:15:21;;;;;;;;;;;;;;;26.37;18.96;100610.84;5099652;28;821;-36
2021/01/16 05:18:15;;;;;;;;;;;;;;;27.18;18.17;100614.81;5099247;28;1901;-26
2021/01/16 05:20:41;;;;;;;;;;;;;;;27.39;18.38;100621.31;5081244;28;1449;-27
2021/01/16 05:23:12;;;;;;;;;;;;;;;27.90;17.79;100619.66;5095729;28;1004;-28
2021/01/16 05:25:38;;;;;;;;;;;;;;;28.41;17.63;100617.03;5098631;28;1084;-28
2021/01/16 05:28:04;;;;;;;;;;;;;;;28.66;17.47;100614.72;5098698;28;806;-29
2021/01/16 05:30:30;;;;;;;;;;;;;;;28.93;17.02;100620.31;5098735;28;838;-38
2021/01/16 05:32:55;;;;;;;;;;;;;;;29.25;16.84;100619.91;5099435;28;878;-29
2021/01/16 05:35:20;;;;;;;;;;;;;;;29.59;16.79;100620.09;5097582;28;803;-30
2021/01/16 05:37:46;;;;;;;;;;;;;;;29.05;17.07;100617.94;5088860;28;1980;-28
2021/01/16 05:40:12;;;;;;;;;;;;;;;28.47;18.12;100616.25;5078094;28;775;-33
2021/01/16 05:42:38;;;;;;;;;;;;;;;28.63;18.16;100619.72;5078245;28;844;-30
2021/01/16 05:45:04;;;;;;;;;;;;;;;28.38;18.03;100622.84;5078594;28;832;-30
2021/01/16 05:47:29;;;;;;;;;;;;;;;27.25;19.88;100618.44;5078543;28;803;-29
2021/01/16 05:49:55;;;;;;;;;;;;;;;27.28;19.71;100617.22;5076768;28;838;-31
2021/01/16 05:52:20;;;;;;;;;;;;;;;28.13;18.78;100617.81;5083381;28;891;-28
2021/01/16 05:54:45;;;;;;;;;;;;;;;27.82;19.31;100617.91;5099000;28;827;-38
2021/01/16 05:57:15;;;;;;;;;;;;;;;27.82;19.20;100620.59;5098223;28;1961;-30
2021/01/16 05:59:40;;;;;;;;;;;;;;;27.64;19.69;100618.31;5098182;28;826;-32
2021/01/16 06:02:06;;;;;;;;;;;;;;;27.49;20.00;100612.91;5097315;28;786;-29
2021/01/16 06:04:33;;;;;;;;;;;;;;;28.11;19.23;100618.00;5096608;28;839;-31
2021/01/16 06:07:05;;;;;;;;;;;;;;;28.39;18.86;100611.81;5097688;28;993;-29
2021/01/16 06:09:31;;;;;;;;;;;;;;;28.55;18.87;100609.84;5098348;28;811;-37
2021/01/16 06:11:56;;;;;;;;;;;;;;;28.76;18.54;100606.25;5097861;28;795;-30
2021/01/16 06:14:21;;;;;;;;;;;;;;;29.18;18.31;100605.47;5096550;28;1322;-31
2021/01/16 06:16:46;;;;;;;;;;;;;;;29.32;18.11;100607.25;5097072;28;1901;-30
2021/01/16 06:19:12;;;;;;;;;;;;;;;29.36;18.13;100613.09;5097744;28;1090;-28
2021/01/16 06:21:37;;;;;;;;;;;;;;;28.90;18.69;100611.75;5096888;28;824;-31
2021/01/16 06:24:02;;;;;;;;;;;;;;;28.22;19.29;100620.19;5076447;28;946;-31
2021/01/16 06:26:28;;;;;;;;;;;;;;;28.72;19.06;100623.94;5077251;28;1174;-30
2021/01/16 06:28:53;;;;;;;;;;;;;;;28.89;18.88;100615.50;5077609;28;771;-30
2021/01/16 06:31:24;;;;;;;;;;;;;;;28.16;19.54;100618.22;5077807;28;763;-29
2021/01/16 06:33:59;;;;;;;;;;;;;;;27.59;20.51;100620.72;5077005;28;914;-33
2021/01/16 06:36:25;;;;;;;;;;;;;;;28.13;20.09;100618.63;5077325;28;1887;-34
2021/01/16 06:38:53;;;;;;;;;;;;;;;28.42;19.89;100621.41;5095410;28;985;-27
2021/01/16 06:41:18;;;;;;;;;;;;;;;28.61;19.50;100628.03;5095863;28;1295;-33
2021/01/16 06:43:44;;;;;;;;;;;;;;;28.82;19.26;100627.13;5097605;28;755;-37
2021/01/16 06:46:10;;;;;;;;;;;;;;;28.64;19.69;100622.22;5095574;28;823;-36
2021/01/16 06:48:39;;;;;;;;;;;;;;;28.65;19.70;100629.31;5096585;28;836;-35
2021/01/16 06:51:06;;;;;;;;;;;;;;;29.02;19.46;100615.63;5095855;28;736;-33
2021/01/16 06:53:32;;;;;;;;;;;;;;;29.28;18.95;100626.81;5094846;28;1017;-37
2021/01/16 06:56:04;;;;;;;;;;;;;;;29.48;18.73;100643.13;5096958;28;1964;-37
2021/01/16 06:58:33;;;;;;;;;;;;;;;29.16;19.34;100635.47;5097443;28;838;-35
2021/01/16 07:00:59;;;;;;;;;;;;;;;29.24;19.40;100637.22;5096079;28;744;-31
2021/01/16 07:03:25;;;;;;;;;;;;;;;29.30;19.22;100636.41;5095364;28;803;-36
2021/01/16 07:05:50;;;;;;;;;;;;;;;29.38;18.95;100640.00;5095805;28;867;-34
2021/01/16 07:08:15;;;;;;;;;;;;;;;28.26;20.38;100652.25;5096763;28;958;-35
2021/01/16 07:10:40;;;;;;;;;;;;;;;29.36;19.60;100645.59;5095721;28;874;-35
2021/01/16 07:13:06;;;;;;;;;;;;;;;29.83;18.96;100650.38;5096028;28;772;-36
2021/01/16 07:15:31;;;;;;;;;;;;;;;29.97;18.97;100645.84;5096433;28;1902;-36
2021/01/16 07:17:59;;;;;;;;;;;;;;;30.14;18.79;100654.44;5095786;28;1083;-36
2021/01/16 07:20:24;;;;;;;;;;;;;;;29.51;19.18;100659.00;5097184;28;790;-32
2021/01/16 07:22:50;;;;;;;;;;;;;;;29.26;19.01;100658.69;5085425;28;1066;-35
2021/01/16 07:25:15;;;;;;;;;;;;;;;28.19;20.23;100652.19;5076333;28;1047;-33
2021/01/16 07:27:41;;;;;;;;;;;;;;;28.59;19.82;100649.03;5076262;28;823;-30
2021/01/16 07:30:07;;;;;;;;;;;;;;;28.63;19.92;100658.41;5076276;28;851;-35
2021/01/16 07:32:35;;;;;;;;;;;;;;;29.31;19.25;100648.91;5076210;28;839;-33
2021/01/16 07:35:01;;;;;;;;;;;;;;;29.61;18.77;100658.66;5076430;28;861;-37
2021/01/16 07:37:26;;;;;;;;;;;;;;;29.35;19.04;100649.34;5081250;28;1963;-38
2021/01/16 07:39:51;;;;;;;;;;;;;;;29.34;19.23;100656.63;5095113;28;826;-37
2021/01/16 07:42:16;;;;;;;;;;;;;;;29.17;19.08;100653.44;5095553;28;795;-37
2021/01/16 07:44:43;;;;;;;;;;;;;;;28.35;20.04;100651.09;5095166;28;1293;-32
2021/01/16 07:47:18;;;;;;;;;;;;;;;29.38;19.05;100651.63;5096619;28;778;-34
2021/01/16 07:49:44;;;;;;;;;;;;;;;29.72;18.71;100650.97;5095877;28;808;-33
2021/01/16 07:52:09;;;;;;;;;;;;;;;29.86;18.52;100649.16;5095589;28;958;-35
2021/01/16 07:54:35;;;;;;;;;;;;;;;29.69;19.06;100657.66;5094898;28;996;-32
2021/01/16 07:57:00;;;;;;;;;;;;;;;29.54;19.14;100658.63;5094924;28;1901;-36
2021/01/16 07:59:31;;;;;;;;;;;;;;;29.27;19.19;100657.63;5093787;28;1132;-33
2021/01/16 08:02:15;;;;;;;;;;;;;;;28.58;19.56;100653.59;5096300;28;807;-32
2021/01/16 08:04:41;;;;;;;;;;;;;;;29.48;18.53;100651.25;5098920;28;862;-35
2021/01/16 08:07:08;;;;;;;;;;;;;;;29.96;18.14;100654.19;5096641;28;949;-37
2021/01/16 08:09:48;;;;;;;;;;;;;;;30.09;18.05;100646.06;5079921;28;859;-36
2021/01/16 08:12:13;;;;;;;;;;;;;;;30.05;18.29;100653.78;5080156;28;858;-33
2021/01/16 08:14:39;;;;;;;;;;;;;;;29.97;18.36;100643.13;5080083;28;821;-30
2021/01/16 08:17:05;;;;;;;;;;;;;;;29.92;18.32;100651.03;5081716;28;1894;-33
2021/01/16 08:19:31;;;;;;;;;;;;;;;29.87;18.45;100646.22;5099146;28;778;-35
2021/01/16 08:21:57;;;;;;;;;;;;;;;30.24;18.17;100647.78;5095863;28;842;-31
2021/01/16 08:24:25;;;;;;;;;;;;;;;30.29;18.18;100643.44;5077211;28;1130;-30
2021/01/16 08:27:10;;;;;;;;;;;;;;;30.13;18.10;100641.09;5079597;28;818;-34
2021/01/16 08:29:35;;;;;;;;;;;;;;;29.80;18.52;100638.06;5078560;28;1123;-31
2021/01/16 08:32:07;;;;;;;;;;;;;;;30.03;18.58;100634.16;5079950;28;790;-36
2021/01/16 08:34:48;;;;;;;;;;;;;;;30.16;18.33;100643.38;5079596;28;808;-28
2021/01/16 08:37:25;;;;;;;;;;;;;;;30.37;18.29;100638.81;5084498;28;1972;-38
2021/01/16 08:39:50;;;;;;;;;;;;;;;30.08;18.42;100633.53;5099459;28;755;-31
2021/01/16 08:42:15;;;;;;;;;;;;;;;30.14;18.60;100635.44;5099161;28;567;-36
2021/01/16 08:44:50;;;;;;;;;;;;;;;29.46;18.96;100637.91;5098795;28;822;-34
2021/01/16 08:47:16;;;;;;;;;;;;;;;28.80;19.45;100633.75;5099331;28;808;-29
2021/01/16 08:49:41;;;;;;;;;;;;;;;29.03;19.25;100630.81;5099784;28;810;-32
2021/01/16 08:52:06;;;;;;;;;;;;;;;29.70;18.28;100633.03;5099554;28;894;-35
2021/01/16 08:54:32;;;;;;;;;;;;;;;30.00;18.03;100621.00;5088711;28;866;-37
2021/01/16 08:57:00;;;;;;;;;;;;;;;29.91;18.27;100608.69;5099487;28;1962;-33
2021/01/16 08:59:29;;;;;;;;;;;;;;;29.88;18.42;100615.34;5099636;28;799;-32
2021/01/16 09:02:07;;;;;;;;;;;;;;;29.81;18.00;100604.50;5098872;28;835;-34
2021/01/16 09:04:33;;;;;;;;;;;;;;;29.14;18.87;100601.53;5099714;28;870;-38
2021/01/16 09:07:17;;;;;;;;;;;;;;;29.89;18.42;100608.91;5099392;28;949;-32
2021/01/16 09:09:52;;;;;;;;;;;;;;;30.03;18.18;100611.66;5099158;28;809;-34
2021/01/16 09:12:22;;;;;;;;;;;;;;;29.60;18.53;100610.91;5099422;28;759;-37
2021/01/16 09:14:48;;;;;;;;;;;;;;;29.11;18.62;100605.47;5098499;28;870;-30
2021/01/16 09:17:14;;;;;;;;;;;;;;;29.63;18.59;100598.84;5098407;28;1901;-37
2021/01/16 09:19:39;;;;;;;;;;;;;;;29.73;18.67;100596.53;5099381;28;786;-34
2021/01/16 09:22:30;;;;;;;;;;;;;;;29.96;18.25;100594.53;5095288;28;906;-32
2021/01/16 09:25:15;;;;;;;;;;;;;;;29.76;18.74;100587.19;5075705;28;1764;-37
2021/01/16 09:27:44;;;;;;;;;;;;;;;29.61;18.77;100585.50;5092523;28;1094;-32
2021/01/16 09:30:18;;;;;;;;;;;;;;;29.53;18.56;100578.31;5098949;28;814;-36
2021/01/16 09:32:43;;;;;;;;;;;;;;;29.02;18.95;100576.88;5097870;28;859;-31
2021/01/16 09:35:08;;;;;;;;;;;;;;;29.29;19.18;100567.00;5098359;28;799;-28
2021/01/16 09:37:36;;;;;;;;;;;;;;;29.55;18.43;100564.56;5098515;28;1914;-35
2021/01/16 09:40:08;;;;;;;;;;;;;;;29.34;18.94;100558.25;5098042;28;836;-33
2021/01/16 09:42:47;;;;;;;;;;;;;;;29.50;18.75;100548.09;5098643;28;799;-30
2021/01/16 09:45:12;;;;;;;;;;;;;;;29.90;18.53;100548.19;5098247;28;764;-32
2021/01/16 09:47:49;;;;;;;;;;;;;;;30.05;18.33;100539.03;5098502;28;774;-34
2021/01/16 09:50:15;;;;;;;;;;;;;;;29.34;18.44;100537.41;5098251;28;853;-34
2021/01/16 09:52:44;;;;;;;;;;;;;;;28.62;17.76;100532.28;5098375;28;890;-32
2021/01/16 09:55:16;;;;;;;;;;;;;;;28.42;19.76;100532.97;5098004;28;533;-36
2021/01/16 09:57:42;;;;;;;;;;;;;;;28.65;19.73;100525.59;5098877;28;1909;-37
2021/01/16 10:00:07;;;;;;;;;;;;;;;28.58;19.99;100530.97;5097426;28;816;-34
2021/01/16 10:02:34;;;;;;;;;;;;;;;28.27;20.50;100534.91;5098040;28;811;-33
2021/01/16 10:04:59;;;;;;;;;;;;;;;27.26;21.57;100530.13;5098215;28;756;-30
2021/01/16 10:07:25;;;;;;;;;;;;;;;27.10;21.86;100518.56;5098058;28;997;-29
2021/01/16 10:09:50;;;;;;;;;;;;;;;27.78;21.06;100521.19;5096465;28;1451;-31
2021/01/16 10:12:34;;;;;;;;;;;;;;;28.20;20.66;100522.16;5098292;28;791;-32
2021/01/16 10:14:59;;;;;;;;;;;;;;;27.65;18.64;100413.75;5097833;28;842;-29
2021/01/16 10:17:25;;;;;;;;;;;;;;;28.26;18.24;100503.50;5096626;28;1901;-35
2021/01/16 10:19:50;;;;;;;;;;;;;;;28.47;19.42;100508.03;5098037;28;802;-31
2021/01/16 10:22:15;;;;;;;;;;;;;;;28.83;18.87;100498.84;5091391;28;946;-37
2021/01/16 10:24:43;;;;;;;;;;;;;;;29.09;19.11;100497.31;5075831;28;1182;-36
2021/01/16 10:27:09;;;;;;;;;;;;;;;29.20;18.87;100486.94;5077448;28;760;-35
2021/01/16 10:29:37;;;;;;;;;;;;;;;29.13;19.08;100486.91;5077233;28;708;-35
2021/01/16 10:32:23;;;;;;;;;;;;;;;28.65;19.53;100483.16;5091009;28;836;-35
2021/01/16 10:34:48;;;;;;;;;;;;;;;28.59;20.00;100478.53;5097332;28;1266;-31
2021/01/16 10:37:14;;;;;;;;;;;;;;;29.11;19.52;100480.03;5096988;28;1973;-28
2021/01/16 10:39:39;;;;;;;;;;;;;;;29.31;19.21;100477.41;5097703;28;799;-31
2021/01/16 10:42:13;;;;;;;;;;;;;;;29.35;19.32;100462.38;5097459;28;890;-35
2021/01/16 10:44:39;;;;;;;;;;;;;;;28.80;19.98;100461.38;5097170;28;771;-30
2021/01/16 10:47:12;;;;;;;;;;;;;;;28.75;19.98;100457.56;5097956;28;760;-34
2021/01/16 10:49:48;;;;;;;;;;;;;;;28.99;19.68;100458.97;5096189;28;824;-35
2021/01/16 10:52:13;;;;;;;;;;;;;;;29.32;19.29;100455.53;5097041;28;894;-33
2021/01/16 10:54:38;;;;;;;;;;;;;;;29.38;19.12;100451.13;5096205;28;866;-37
2021/01/16 10:57:04;;;;;;;;;;;;;;;29.49;19.14;100443.44;5097375;28;1965;-30
2021/01/16 10:59:30;;;;;;;;;;;;;;;29.25;19.23;100443.81;5096689;28;855;-31
2021/01/16 11:01:55;;;;;;;;;;;;;;;29.14;19.40;100447.13;5097298;28;759;-30
2021/01/16 11:04:27;;;;;;;;;;;;;;;29.56;19.40;100450.53;5096368;28;858;-36
2021/01/16 11:06:58;;;;;;;;;;;;;;;29.73;19.20;100443.91;5096920;28;962;-36
2021/01/16 11:09:33;;;;;;;;;;;;;;;29.86;19.11;100435.78;5096816;28;978;-28
2021/01/16 11:11:58;;;;;;;;;;;;;;;29.30;19.50;100427.78;5097012;28;898;-36
2021/01/16 11:14:28;;;;;;;;;;;;;;;29.15;19.85;100424.41;5095342;28;810;-29
2021/01/16 11:16:54;;;;;;;;;;;;;;;29.58;19.21;100423.22;5096718;28;1962;-30
2021/01/16 11:19:19;;;;;;;;;;;;;;;29.83;19.12;100422.63;5097035;28;751;-32
2021/01/16 11:21:51;;;;;;;;;;;;;;;30.03;18.79;100422.59;5093288;28;1540;-30
2021/01/16 11:24:31;;;;;;;;;;;;;;;29.80;19.13;100407.63;5096747;28;1174;-36
2021/01/16 11:26:57;;;;;;;;;;;;;;;29.78;19.19;100409.69;5096715;28;767;-34
2021/01/16 11:29:25;;;;;;;;;;;;;;;29.75;19.38;100407.41;5095281;28;822;-33
2021/01/16 11:31:51;;;;;;;;;;;;;;;29.87;18.91;100398.66;5095703;28;1274;-31
2021/01/16 11:34:21;;;;;;;;;;;;;;;30.03;18.93;100402.81;5096582;28;767;-36
2021/01/16 11:36:55;;;;;;;;;;;;;;;30.10;18.62;100400.91;5095646;28;1917;-33
2021/01/16 11:39:40;;;;;;;;;;;;;;;29.62;19.30;100397.41;5096494;28;739;-35
2021/01/16 11:42:05;;;;;;;;;;;;;;;29.55;19.25;100401.97;5096595;28;811;-36
2021/01/16 11:44:30;;;;;;;;;;;;;;;29.86;19.28;100395.13;5095203;28;771;-31
2021/01/16 11:46:55;;;;;;;;;;;;;;;30.08;18.81;100389.41;5095310;28;1501;-35
2021/01/16 11:49:21;;;;;;;;;;;;;;;30.19;18.56;100386.09;5096739;28;823;-32
2021/01/16 11:51:46;;;;;;;;;;;;;;;30.09;18.73;100382.13;5096173;28;1141;-29
2021/01/16 11:54:11;;;;;;;;;;;;;;;29.65;19.12;100379.88;5096391;28;798;-36
2021/01/16 11:56:37;;;;;;;;;;;;;;;29.74;19.31;100377.81;5096466;28;1973;-28
2021/01/16 11:59:02;;;;;;;;;;;;;;;29.98;19.05;100389.84;5096539;28;767;-31
2021/01/16 12:01:27;;;;;;;;;;;;;;;30.14;18.88;100390.47;5094493;28;895;-34
2021/01/16 12:03:52;;;;;;;;;;;;;;;30.33;18.53;100396.09;5096389;28;771;-29
2021/01/16 12:06:18;;;;;;;;;;;;;;;29.30;19.35;100383.59;5096397;28;811;-32
2021/01/16 12:08:44;;;;;;;;;;;;;;;28.90;19.52;100385.19;5095381;28;977;-37
2021/01/16 12:11:09;;;;;;;;;;;;;;;29.56;19.53;100377.34;5095991;28;875;-37
2021/01/16 12:13:35;;;;;;;;;;;;;;;29.99;19.16;100369.84;5096136;28;851;-36
2021/01/16 12:16:00;;;;;;;;;;;;;;;30.23;18.52;100364.78;5096019;28;1906;-37
2021/01/16 12:18:25;;;;;;;;;;;;;;;30.22;18.51;100359.56;5096494;28;1122;-36
2021/01/16 12:20:51;;;;;;;;;;;;;;;29.78;19.18;100354.66;5094882;28;792;-33
2021/01/16 12:23:16;;;;;;;;;;;;;;;29.72;19.04;100350.91;5082224;28;950;-33
2021/01/16 12:25:41;;;;;;;;;;;;;;;30.15;18.80;100348.72;5074867;28;1063;-32
2021/01/16 12:28:11;;;;;;;;;;;;;;;29.51;18.58;100240.84;5074912;28;827;-29
2021/01/16 12:30:37;;;;;;;;;;;;;;;30.33;18.53;100358.09;5075956;28;744;-31
2021/01/16 12:33:03;;;;;;;;;;;;;;;29.98;18.94;100357.31;5075671;28;1450;-33
2021/01/16 12:35:28;;;;;;;;;;;;;;;29.42;19.43;100349.44;5076041;28;780;-36
2021/01/16 12:37:54;;;;;;;;;;;;;;;29.81;19.06;100354.25;5085563;28;1934;-35
2021/01/16 12:40:22;;;;;;;;;;;;;;;30.03;18.75;100349.38;5095655;28;819;-31
2021/01/16 12:42:48;;;;;;;;;;;;;;;30.12;18.78;100363.56;5096022;28;788;-35
2021/01/16 12:45:19;;;;;;;;;;;;;;;30.29;18.55;100361.25;5095651;28;751;-36
2021/01/16 12:47:45;;;;;;;;;;;;;;;29.52;19.36;100354.44;5096153;28;1070;-34
2021/01/16 12:50:10;;;;;;;;;;;;;;;29.26;19.41;100358.81;5097689;28;717;-36
2021/01/16 12:52:36;;;;;;;;;;;;;;;29.89;19.00;100362.16;5099103;28;890;-36
2021/01/16 12:55:08;;;;;;;;;;;;;;;30.00;18.72;100367.94;5099666;28;827;-35